Main page
METAR-TAF:

METAR-TAF

Airports :

Castres–Mazamet Airport

Castres, France

latitude: 43-33-25N, longitude: 2-17-21E, elevation: 239 m

Current weather observation

The report was made 36 minutes ago, at 08:30 UTC
Wind 8 kt from the West
Temperature 20°C
Humidity 73%
Pressure 1022 hPa
Visibility 10 km or more
Scattered clouds at a height of 1700 ft

METAR: LFCK 150830Z AUTO 28008KT 9999 SCT017 20/15 Q1022 NOSIG

Time: 11:06 (09:06 UTC)

Forecast

The report was made 1 hour and 6 minutes ago, at 08:00 UTC
Forecast valid from 15 at 09 UTC to 15 at 18 UTC
Wind 3 kt from the West/Northwest
Visibility 10 km or more
no clouds below 1500 m and no cumulonimbus

TAF: LFCK 150800Z 1509/1518 30003KT CAVOK

Weather observations and forecasts of more than 4000 airports (METAR and TAF reports).

The available stations are represented by yellow and red dots on the map.

Hover mouse over dot to see the name of the station.

Then click to see weather observations and forecasts.

To change the map : click on the green buttons with a black cross to zoom in, on the green button with a dash to zoom out, or on the green arrows for adjacent maps.


METAR-TAF: